createdAt,value
2023-09-27T00:02:25.924Z,99.26
2023-09-27T00:04:53.741Z,99.22
2023-09-27T00:07:21.891Z,99.04
2023-09-27T00:09:49.801Z,98.77
2023-09-27T00:12:17.407Z,99.14
2023-09-27T00:14:45.408Z,98.62
2023-09-27T00:17:13.257Z,99.21
2023-09-27T00:19:41.417Z,99.43
2023-09-27T00:22:11.097Z,98.94
2023-09-27T00:24:40.336Z,99.65
2023-09-27T00:27:08.760Z,99.39
2023-09-27T00:29:36.372Z,99.65
2023-09-27T00:32:04.611Z,99.19
2023-09-27T00:34:32.771Z,99.30
2023-09-27T00:37:01.326Z,98.77
2023-09-27T00:39:29.096Z,99.41
2023-09-27T00:41:56.793Z,99.18
2023-09-27T00:44:24.542Z,98.61
2023-09-27T00:46:52.710Z,99.08
2023-09-27T00:49:21.145Z,99.51
2023-09-27T00:51:49.043Z,99.38
2023-09-27T00:54:17.303Z,98.95
2023-09-27T00:56:47.166Z,98.86
2023-09-27T00:59:17.296Z,98.67
2023-09-27T01:01:46.108Z,98.80
2023-09-27T01:04:17.512Z,99.53
2023-09-27T01:06:45.618Z,99.17
2023-09-27T01:09:13.262Z,99.68
2023-09-27T01:11:41.329Z,99.69
2023-09-27T01:14:09.016Z,99.91
2023-09-27T01:16:36.727Z,99.29
2023-09-27T01:19:04.930Z,99.96
2023-09-27T01:21:32.848Z,100.00
2023-09-27T01:24:00.536Z,99.27
2023-09-27T01:26:31.944Z,99.50
2023-09-27T01:28:59.967Z,99.43
2023-09-27T01:31:27.658Z,99.06
2023-09-27T01:33:56.731Z,99.81
2023-09-27T01:36:24.400Z,99.61
2023-09-27T01:38:52.216Z,100.00
2023-09-27T01:41:20.061Z,100.00
2023-09-27T01:43:47.801Z,99.49
2023-09-27T01:46:15.598Z,100.00
2023-09-27T01:48:43.278Z,99.61
2023-09-27T01:51:10.923Z,99.99
2023-09-27T01:53:38.563Z,99.18
2023-09-27T01:56:06.289Z,99.63
2023-09-27T01:58:34.197Z,99.29
2023-09-27T02:01:01.911Z,99.83
2023-09-27T02:03:29.635Z,99.97
2023-09-27T02:05:58.944Z,100.00
2023-09-27T02:08:26.677Z,99.79
2023-09-27T02:10:54.475Z,99.63
2023-09-27T02:13:22.286Z,100.00
2023-09-27T02:15:49.986Z,100.00
2023-09-27T02:18:18.256Z,100.00
2023-09-27T02:20:46.936Z,100.00
2023-09-27T02:23:14.976Z,100.00
2023-09-27T02:25:42.985Z,100.00
2023-09-27T02:28:11.695Z,100.00
2023-09-27T02:30:39.543Z,100.00
2023-09-27T02:33:07.319Z,100.00
2023-09-27T02:35:37.987Z,100.00
2023-09-27T02:38:05.842Z,100.00
2023-09-27T02:40:33.739Z,99.84
2023-09-27T02:43:01.508Z,100.00
2023-09-27T02:45:29.312Z,99.69
2023-09-27T02:47:57.128Z,100.00
2023-09-27T02:50:25.089Z,100.00
2023-09-27T02:52:53.024Z,99.73
2023-09-27T02:55:20.761Z,100.00
2023-09-27T02:57:54.237Z,99.99
2023-09-27T03:00:24.183Z,100.00
2023-09-27T03:02:52.390Z,100.00
2023-09-27T03:05:21.749Z,100.00
2023-09-27T03:07:49.743Z,100.00
2023-09-27T03:10:17.868Z,100.00
2023-09-27T03:15:59.915Z,100.00
2023-09-27T03:18:27.820Z,100.00
2023-09-27T03:20:55.448Z,100.00
2023-09-27T03:23:23.346Z,100.00
2023-09-27T03:25:51.077Z,100.00
2023-09-27T03:28:18.817Z,100.00
2023-09-27T03:30:48.439Z,100.00
2023-09-27T03:33:16.953Z,100.00
2023-09-27T03:35:44.607Z,100.00
2023-09-27T03:38:12.534Z,100.00
2023-09-27T03:40:43.024Z,100.00
2023-09-27T03:43:11.133Z,100.00
2023-09-27T03:45:39.005Z,100.00
2023-09-27T03:48:08.916Z,100.00
2023-09-27T03:50:36.804Z,100.00
2023-09-27T03:53:05.782Z,100.00
2023-09-27T03:55:33.624Z,100.00
2023-09-27T03:58:02.000Z,100.00
2023-09-27T04:00:30.048Z,100.00
2023-09-27T04:02:57.807Z,100.00
2023-09-27T04:05:27.803Z,100.00
2023-09-27T04:07:55.677Z,100.00
2023-09-27T04:10:25.863Z,100.00
2023-09-27T04:12:53.536Z,100.00
2023-09-27T04:15:21.203Z,100.00
2023-09-27T04:17:49.350Z,100.00
2023-09-27T04:20:19.212Z,100.00
2023-09-27T04:22:49.130Z,100.00
2023-09-27T04:25:18.460Z,100.00
2023-09-27T04:27:47.878Z,100.00
2023-09-27T04:30:16.312Z,100.00
2023-09-27T04:32:45.915Z,100.00
2023-09-27T04:35:17.239Z,100.00
2023-09-27T04:37:45.889Z,100.00
2023-09-27T04:40:15.108Z,100.00
2023-09-27T04:42:43.737Z,100.00
2023-09-27T04:45:12.984Z,100.00
2023-09-27T04:47:42.089Z,100.00
2023-09-27T04:50:13.402Z,100.00
2023-09-27T04:52:43.166Z,100.00
2023-09-27T04:55:11.345Z,100.00
2023-09-27T04:57:39.105Z,100.00
2023-09-27T05:00:12.648Z,100.00
2023-09-27T05:02:40.428Z,100.00
2023-09-27T05:05:09.388Z,100.00
2023-09-27T05:07:37.272Z,100.00
2023-09-27T05:10:05.348Z,100.00
2023-09-27T05:12:32.997Z,100.00
2023-09-27T05:15:00.632Z,100.00
2023-09-27T05:17:28.344Z,100.00
2023-09-27T05:19:56.007Z,100.00
2023-09-27T05:22:23.733Z,100.00
2023-09-27T05:24:51.493Z,100.00
2023-09-27T05:27:19.158Z,100.00
2023-09-27T05:29:47.015Z,100.00
2023-09-27T05:32:14.745Z,100.00
2023-09-27T05:34:42.398Z,100.00
2023-09-27T05:37:10.050Z,100.00
2023-09-27T05:39:38.404Z,100.00
2023-09-27T05:42:06.096Z,100.00
2023-09-27T05:44:33.706Z,100.00
2023-09-27T05:47:01.712Z,100.00
2023-09-27T05:49:30.908Z,100.00
2023-09-27T05:51:58.556Z,100.00
2023-09-27T05:54:26.216Z,100.00
2023-09-27T05:56:55.545Z,100.00
2023-09-27T05:59:25.973Z,100.00
2023-09-27T06:01:55.687Z,100.00
2023-09-27T06:04:23.657Z,100.00
2023-09-27T06:06:52.119Z,100.00
2023-09-27T06:09:19.822Z,100.00
2023-09-27T06:11:47.855Z,100.00
2023-09-27T06:14:15.812Z,100.00
2023-09-27T06:16:46.520Z,100.00
2023-09-27T06:19:14.297Z,100.00
2023-09-27T06:21:41.954Z,100.00
2023-09-27T06:24:10.221Z,100.00
2023-09-27T06:26:37.815Z,100.00
2023-09-27T06:29:05.801Z,100.00
2023-09-27T06:31:35.440Z,100.00
2023-09-27T06:34:03.225Z,100.00
2023-09-27T06:36:34.390Z,100.00
2023-09-27T06:39:02.224Z,100.00
2023-09-27T06:41:30.021Z,100.00
2023-09-27T06:43:58.023Z,100.00
2023-09-27T06:46:27.776Z,100.00
2023-09-27T06:48:57.765Z,100.00
2023-09-27T06:51:25.813Z,100.00
2023-09-27T06:53:53.706Z,100.00
2023-09-27T06:56:21.428Z,100.00
2023-09-27T06:58:50.428Z,100.00
2023-09-27T07:01:19.361Z,100.00
2023-09-27T07:03:49.629Z,100.00
2023-09-27T07:06:17.557Z,100.00
2023-09-27T07:08:48.273Z,100.00
2023-09-27T07:11:16.321Z,100.00
2023-09-27T07:13:44.077Z,100.00
2023-09-27T07:16:28.435Z,100.00
2023-09-27T07:19:00.826Z,100.00
2023-09-27T07:21:29.466Z,100.00
2023-09-27T07:23:57.294Z,100.00
2023-09-27T07:26:25.032Z,100.00
2023-09-27T07:28:53.026Z,100.00
2023-09-27T07:31:21.382Z,100.00
2023-09-27T07:33:55.800Z,100.00
2023-09-27T07:36:26.812Z,100.00
2023-09-27T07:38:59.249Z,100.00
2023-09-27T07:41:27.406Z,100.00
2023-09-27T07:43:55.305Z,100.00
2023-09-27T07:46:23.261Z,100.00
2023-09-27T07:48:51.435Z,100.00
2023-09-27T07:51:19.585Z,100.00
2023-09-27T07:53:47.183Z,100.00
2023-09-27T07:56:21.515Z,100.00
2023-09-27T07:58:53.193Z,100.00
2023-09-27T08:01:23.064Z,100.00
2023-09-27T08:03:54.629Z,100.00
2023-09-27T08:06:23.221Z,100.00
2023-09-27T08:08:53.352Z,100.00
2023-09-27T08:11:21.422Z,100.00
2023-09-27T08:13:49.092Z,100.00
2023-09-27T08:16:17.762Z,100.00
2023-09-27T08:18:45.443Z,100.00
2023-09-27T08:21:13.164Z,100.00
2023-09-27T08:23:42.427Z,100.00
2023-09-27T08:26:15.838Z,100.00
2023-09-27T08:28:44.366Z,100.00
2023-09-27T08:31:12.745Z,100.00
2023-09-27T08:33:40.531Z,100.00
2023-09-27T08:36:08.169Z,100.00
2023-09-27T08:38:36.149Z,100.00
2023-09-27T08:41:06.869Z,100.00
2023-09-27T08:43:34.952Z,100.00
2023-09-27T08:46:04.181Z,100.00
2023-09-27T08:48:32.664Z,100.00
2023-09-27T08:51:06.280Z,100.00
2023-09-27T08:53:36.371Z,100.00
2023-09-27T08:56:05.570Z,100.00
2023-09-27T08:58:35.506Z,100.00
2023-09-27T09:01:04.702Z,100.00
2023-09-27T09:03:33.410Z,100.00
2023-09-27T09:06:02.429Z,100.00
2023-09-27T09:08:43.185Z,100.00
2023-09-27T09:11:13.381Z,100.00
2023-09-27T09:16:52.935Z,100.00
2023-09-27T09:19:43.003Z,100.00
2023-09-27T09:22:14.526Z,100.00
2023-09-27T09:24:45.053Z,100.00
2023-09-27T09:27:17.236Z,100.00
2023-09-27T09:29:49.780Z,100.00
2023-09-27T09:32:22.037Z,100.00
2023-09-27T09:34:51.754Z,100.00
2023-09-27T09:37:20.140Z,100.00
2023-09-27T09:39:52.767Z,100.00
2023-09-27T09:42:36.074Z,100.00
2023-09-27T09:45:09.654Z,100.00
2023-09-27T09:47:40.923Z,100.00
2023-09-27T09:50:18.495Z,100.00
2023-09-27T09:52:58.853Z,100.00
2023-09-27T09:55:52.090Z,100.00
2023-09-27T09:58:33.702Z,100.00
2023-09-27T10:01:04.036Z,100.00
2023-09-27T10:03:34.622Z,100.00
2023-09-27T10:06:03.446Z,100.00
2023-09-27T10:08:39.898Z,100.00
2023-09-27T10:11:07.953Z,100.00
2023-09-27T10:13:37.367Z,100.00
2023-09-27T10:16:55.206Z,100.00
2023-09-27T10:19:38.207Z,100.00
2023-09-27T10:22:08.022Z,100.00
2023-09-27T10:24:42.402Z,100.00
2023-09-27T10:27:10.206Z,100.00
2023-09-27T10:30:07.360Z,100.00
2023-09-27T10:32:35.340Z,100.00
2023-09-27T10:35:18.748Z,100.00
2023-09-27T10:38:00.530Z,100.00
2023-09-27T10:40:28.497Z,100.00
2023-09-27T10:42:57.112Z,100.00
2023-09-27T10:45:24.968Z,100.00
2023-09-27T10:47:55.237Z,100.00
2023-09-27T10:50:31.348Z,100.00
2023-09-27T10:53:00.500Z,100.00
2023-09-27T10:55:38.846Z,100.00
2023-09-27T10:58:07.596Z,100.00
2023-09-27T11:00:35.399Z,100.00
2023-09-27T11:03:17.798Z,100.00
2023-09-27T11:05:45.912Z,100.00
2023-09-27T11:08:24.280Z,100.00
2023-09-27T11:10:54.491Z,100.00
2023-09-27T11:13:22.777Z,100.00
2023-09-27T11:15:52.127Z,100.00
2023-09-27T11:18:20.070Z,100.00
2023-09-27T11:20:48.259Z,100.00
2023-09-27T11:23:16.300Z,100.00
2023-09-27T11:26:21.450Z,100.00
2023-09-27T11:29:14.730Z,100.00
2023-09-27T11:31:42.710Z,100.00
2023-09-27T11:34:22.424Z,100.00
2023-09-27T11:36:55.041Z,100.00
2023-09-27T11:39:30.951Z,100.00
2023-09-27T11:42:00.581Z,100.00
2023-09-27T11:44:29.288Z,100.00
2023-09-27T11:47:10.456Z,100.00
2023-09-27T11:49:38.262Z,100.00
2023-09-27T11:52:11.783Z,100.00
2023-09-27T11:54:46.715Z,100.00
2023-09-27T11:57:14.539Z,100.00
2023-09-27T11:59:42.261Z,100.00
2023-09-27T12:02:20.674Z,100.00
2023-09-27T12:04:54.742Z,100.00
2023-09-27T12:07:22.597Z,100.00
2023-09-27T12:09:50.283Z,100.00
2023-09-27T12:12:17.975Z,100.00
2023-09-27T12:14:46.254Z,100.00
2023-09-27T12:17:14.053Z,100.00
2023-09-27T12:19:41.845Z,100.00
2023-09-27T12:22:09.532Z,100.00
2023-09-27T12:24:37.197Z,100.00
2023-09-27T12:27:05.605Z,100.00
2023-09-27T12:29:35.037Z,100.00
2023-09-27T12:32:03.050Z,100.00
2023-09-27T12:34:32.071Z,100.00
2023-09-27T12:36:59.970Z,100.00
2023-09-27T12:39:27.684Z,100.00
2023-09-27T12:41:55.424Z,100.00
2023-09-27T12:44:23.180Z,100.00
2023-09-27T12:46:50.993Z,100.00
2023-09-27T12:49:19.278Z,100.00
2023-09-27T12:51:49.818Z,100.00
2023-09-27T12:54:17.823Z,100.00
2023-09-27T12:56:46.130Z,100.00
2023-09-27T12:59:13.922Z,100.00
2023-09-27T13:01:41.600Z,100.00
2023-09-27T13:04:10.673Z,100.00
2023-09-27T13:06:39.130Z,100.00
2023-09-27T13:09:07.254Z,100.00
2023-09-27T13:11:35.257Z,100.00
2023-09-27T13:14:03.002Z,100.00
2023-09-27T13:16:30.692Z,100.00
2023-09-27T13:18:58.805Z,100.00
2023-09-27T13:21:28.302Z,100.00
2023-09-27T13:23:55.957Z,100.00
2023-09-27T13:26:23.772Z,100.00
2023-09-27T13:28:51.502Z,100.00
2023-09-27T13:31:19.479Z,100.00
2023-09-27T13:33:55.059Z,100.00
2023-09-27T13:36:36.519Z,100.00
2023-09-27T13:39:07.106Z,100.00
2023-09-27T13:41:47.950Z,100.00
2023-09-27T13:44:16.345Z,100.00
2023-09-27T13:46:45.608Z,100.00
2023-09-27T13:49:14.114Z,100.00
2023-09-27T13:51:42.538Z,100.00
2023-09-27T13:54:10.540Z,100.00
2023-09-27T13:56:38.418Z,100.00
2023-09-27T13:59:07.310Z,100.00
2023-09-27T14:01:35.559Z,100.00
2023-09-27T14:04:04.160Z,100.00
2023-09-27T14:06:31.888Z,100.00
2023-09-27T14:09:00.015Z,100.00
2023-09-27T14:11:27.949Z,100.00
2023-09-27T14:13:55.927Z,100.00
2023-09-27T14:16:24.114Z,100.00
2023-09-27T14:18:52.306Z,100.00
2023-09-27T14:21:20.338Z,100.00
2023-09-27T14:23:48.072Z,100.00
2023-09-27T14:26:16.282Z,100.00
2023-09-27T14:28:44.111Z,100.00
2023-09-27T14:31:11.767Z,100.00
2023-09-27T14:33:39.734Z,100.00
2023-09-27T14:36:07.765Z,100.00
2023-09-27T14:38:36.305Z,100.00
2023-09-27T14:41:10.749Z,100.00
2023-09-27T14:43:39.109Z,100.00
2023-09-27T14:46:13.971Z,100.00
2023-09-27T14:48:41.957Z,100.00
2023-09-27T14:51:13.497Z,100.00
2023-09-27T14:53:42.542Z,100.00
2023-09-27T14:56:11.683Z,100.00
2023-09-27T14:58:40.672Z,100.00
2023-09-27T15:01:09.168Z,100.00
2023-09-27T15:03:37.182Z,100.00
2023-09-27T15:06:07.005Z,100.00
2023-09-27T15:08:35.171Z,100.00
2023-09-27T15:11:04.437Z,100.00
2023-09-27T15:13:32.593Z,100.00
2023-09-27T15:16:01.643Z,100.00
2023-09-27T15:18:29.592Z,100.00
2023-09-27T15:20:57.467Z,100.00
2023-09-27T15:23:25.071Z,100.00
2023-09-27T15:25:52.674Z,100.00
2023-09-27T15:28:20.428Z,100.00
2023-09-27T15:30:48.023Z,100.00
2023-09-27T15:33:15.673Z,100.00
2023-09-27T15:35:55.108Z,100.00
2023-09-27T15:38:22.921Z,100.00
2023-09-27T15:40:50.774Z,100.00
2023-09-27T15:43:18.827Z,100.00
2023-09-27T15:45:59.682Z,100.00
2023-09-27T15:48:31.307Z,100.00
2023-09-27T15:51:00.751Z,100.00
2023-09-27T15:53:30.061Z,100.00
2023-09-27T15:55:57.746Z,100.00
2023-09-27T15:58:26.667Z,100.00
2023-09-27T16:00:54.435Z,100.00
2023-09-27T16:03:22.627Z,100.00
2023-09-27T16:05:51.416Z,100.00
2023-09-27T16:08:23.008Z,100.00
2023-09-27T16:10:55.386Z,100.00
2023-09-27T16:13:24.104Z,100.00
2023-09-27T16:15:52.895Z,100.00
2023-09-27T16:18:21.970Z,100.00
2023-09-27T16:20:49.661Z,100.00
2023-09-27T16:23:17.683Z,100.00
2023-09-27T16:25:47.640Z,100.00
2023-09-27T16:28:16.241Z,100.00
2023-09-27T16:30:44.385Z,100.00
2023-09-27T16:33:12.346Z,100.00
2023-09-27T16:35:41.349Z,100.00
2023-09-27T16:38:11.069Z,100.00
2023-09-27T16:40:41.053Z,100.00
2023-09-27T16:43:09.109Z,100.00
2023-09-27T16:45:40.781Z,100.00
2023-09-27T16:48:08.982Z,100.00
2023-09-27T16:50:36.626Z,100.00
2023-09-27T16:53:04.738Z,100.00
2023-09-27T16:55:32.671Z,100.00
2023-09-27T16:58:00.371Z,100.00
2023-09-27T17:00:28.300Z,100.00
2023-09-27T17:02:56.004Z,100.00
2023-09-27T17:05:23.897Z,100.00
2023-09-27T17:07:51.864Z,100.00
2023-09-27T17:10:19.513Z,100.00
2023-09-27T17:12:47.271Z,100.00
2023-09-27T17:15:15.379Z,100.00
2023-09-27T17:17:43.088Z,100.00
2023-09-27T17:20:11.552Z,100.00
2023-09-27T17:22:39.304Z,100.00
2023-09-27T17:25:09.220Z,100.00
2023-09-27T17:27:36.983Z,100.00
2023-09-27T17:30:06.663Z,100.00
2023-09-27T17:32:34.613Z,100.00
2023-09-27T17:35:02.363Z,100.00
2023-09-27T17:37:30.173Z,100.00
2023-09-27T17:39:57.806Z,100.00
2023-09-27T17:42:25.488Z,100.00
2023-09-27T17:44:53.179Z,100.00
2023-09-27T17:47:20.892Z,100.00
2023-09-27T17:49:48.543Z,100.00
2023-09-27T17:52:16.221Z,100.00
2023-09-27T17:54:44.082Z,100.00
2023-09-27T17:57:11.861Z,100.00
2023-09-27T17:59:40.501Z,100.00
2023-09-27T18:02:08.733Z,100.00
2023-09-27T18:04:36.439Z,100.00
2023-09-27T18:07:04.215Z,100.00
2023-09-27T18:09:35.972Z,100.00
2023-09-27T18:12:04.143Z,100.00
2023-09-27T18:14:31.738Z,100.00
2023-09-27T18:16:59.473Z,100.00
2023-09-27T18:19:27.398Z,100.00
2023-09-27T18:21:55.055Z,100.00
2023-09-27T18:24:22.832Z,100.00
2023-09-27T18:26:50.572Z,100.00
2023-09-27T18:29:18.213Z,100.00
2023-09-27T18:31:45.929Z,100.00
2023-09-27T18:34:15.042Z,100.00
2023-09-27T18:36:42.838Z,100.00
2023-09-27T18:39:10.466Z,100.00
2023-09-27T18:41:38.105Z,100.00
2023-09-27T18:44:06.321Z,100.00
2023-09-27T18:46:35.185Z,100.00
2023-09-27T18:49:03.319Z,100.00
2023-09-27T18:51:31.360Z,100.00
2023-09-27T18:53:58.981Z,100.00
2023-09-27T18:56:29.703Z,100.00
2023-09-27T18:59:00.110Z,100.00
2023-09-27T19:01:28.176Z,100.00
2023-09-27T19:03:56.154Z,100.00
2023-09-27T19:06:25.065Z,100.00
2023-09-27T19:08:54.041Z,100.00
2023-09-27T19:11:22.113Z,100.00
2023-09-27T19:13:50.595Z,100.00
2023-09-27T19:16:18.620Z,100.00
2023-09-27T19:18:46.804Z,100.00
2023-09-27T19:21:14.556Z,100.00
2023-09-27T19:23:42.648Z,100.00
2023-09-27T19:26:11.054Z,100.00
2023-09-27T19:28:39.153Z,100.00
2023-09-27T19:31:10.667Z,100.00
2023-09-27T19:33:43.110Z,100.00
2023-09-27T19:36:20.640Z,100.00
2023-09-27T19:38:49.244Z,100.00
2023-09-27T19:41:17.770Z,100.00
2023-09-27T19:43:46.138Z,100.00
2023-09-27T19:46:20.061Z,100.00
2023-09-27T19:48:49.704Z,100.00
2023-09-27T19:51:22.390Z,100.00
2023-09-27T19:53:52.130Z,100.00
2023-09-27T19:56:22.152Z,100.00
2023-09-27T19:58:50.351Z,100.00
2023-09-27T20:01:33.247Z,100.00
2023-09-27T20:04:01.459Z,100.00
2023-09-27T20:06:31.244Z,100.00
2023-09-27T20:08:59.571Z,100.00
2023-09-27T20:11:27.446Z,100.00
2023-09-27T20:13:59.029Z,100.00
2023-09-27T20:16:29.542Z,100.00
2023-09-27T20:18:57.424Z,100.00
2023-09-27T20:21:25.292Z,100.00
2023-09-27T20:23:53.609Z,100.00
2023-09-27T20:26:22.979Z,100.00
2023-09-27T20:28:51.605Z,100.00
2023-09-27T20:31:20.976Z,100.00
2023-09-27T20:33:48.969Z,100.00
2023-09-27T20:36:16.852Z,100.00
2023-09-27T20:38:46.294Z,100.00
2023-09-27T20:41:19.875Z,100.00
2023-09-27T20:43:47.587Z,100.00
2023-09-27T20:46:17.449Z,100.00
2023-09-27T20:48:45.703Z,100.00
2023-09-27T20:51:15.258Z,100.00
2023-09-27T20:53:43.187Z,100.00
2023-09-27T20:56:10.949Z,100.00
2023-09-27T20:58:42.181Z,100.00
2023-09-27T21:01:29.482Z,100.00
2023-09-27T21:04:00.289Z,100.00
2023-09-27T21:06:29.113Z,100.00
2023-09-27T21:08:58.280Z,100.00
2023-09-27T21:11:26.128Z,100.00
2023-09-27T21:13:58.473Z,100.00
2023-09-27T21:16:27.471Z,100.00
2023-09-27T21:18:55.945Z,100.00
2023-09-27T21:21:24.183Z,100.00
2023-09-27T21:23:53.541Z,100.00
2023-09-27T21:26:21.794Z,100.00
2023-09-27T21:28:49.777Z,100.00
2023-09-27T21:31:17.499Z,100.00
2023-09-27T21:33:45.238Z,100.00
2023-09-27T21:36:13.533Z,100.00
2023-09-27T21:38:41.180Z,100.00
2023-09-27T21:41:08.898Z,100.00
2023-09-27T21:43:36.909Z,100.00
2023-09-27T21:46:15.041Z,100.00
2023-09-27T21:48:42.867Z,100.00
2023-09-27T21:51:10.474Z,100.00
2023-09-27T21:53:40.984Z,100.00
2023-09-27T21:56:11.099Z,100.00
2023-09-27T21:58:38.864Z,100.00
2023-09-27T22:01:13.983Z,100.00
2023-09-27T22:03:42.553Z,100.00
2023-09-27T22:06:10.299Z,100.00
2023-09-27T22:08:38.110Z,100.00
2023-09-27T22:11:05.997Z,100.00
2023-09-27T22:13:39.364Z,100.00
2023-09-27T22:16:13.613Z,100.00
2023-09-27T22:19:05.415Z,100.00
2023-09-27T22:21:38.630Z,100.00
2023-09-27T22:24:13.895Z,100.00
2023-09-27T22:26:46.565Z,100.00
2023-09-27T22:29:15.545Z,100.00
2023-09-27T22:31:43.982Z,100.00
2023-09-27T22:34:13.082Z,100.00
2023-09-27T22:36:52.328Z,100.00
2023-09-27T22:39:20.748Z,100.00
2023-09-27T22:41:53.624Z,100.00
2023-09-27T22:44:23.042Z,100.00
2023-09-27T22:46:55.235Z,100.00
2023-09-27T22:49:24.388Z,100.00
2023-09-27T22:51:53.467Z,100.00
2023-09-27T22:54:23.146Z,100.00
2023-09-27T22:56:53.519Z,100.00
2023-09-27T22:59:22.954Z,100.00
2023-09-27T23:01:56.197Z,100.00
2023-09-27T23:04:24.707Z,100.00
2023-09-27T23:07:02.731Z,100.00
2023-09-27T23:09:37.487Z,100.00
2023-09-27T23:12:18.751Z,100.00
2023-09-27T23:15:06.013Z,100.00
2023-09-27T23:18:01.299Z,100.00
2023-09-27T23:20:31.746Z,100.00
2023-09-27T23:23:08.328Z,100.00
2023-09-27T23:25:53.109Z,100.00
2023-09-27T23:28:39.275Z,100.00
2023-09-27T23:31:11.838Z,100.00
2023-09-27T23:33:44.110Z,100.00
2023-09-27T23:36:27.243Z,100.00
2023-09-27T23:38:58.203Z,100.00
2023-09-27T23:41:31.491Z,100.00
2023-09-27T23:44:06.005Z,100.00
2023-09-27T23:46:40.117Z,100.00
2023-09-27T23:49:08.193Z,100.00
2023-09-27T23:51:36.006Z,100.00
2023-09-27T23:54:04.215Z,100.00
2023-09-27T23:56:32.059Z,100.00
2023-09-27T23:59:20.968Z,100.00
